Time;durP1;ratioP1;P1;durP2;ratioP2;P2;SDS_P1;SDS_P2;PMS_P1;PMS_P2;Temp;Humidity;BMP_temperature;BMP_pressure;BME280_temperature;BME280_humidity;BME280_pressure;Samples;Min_cycle;Max_cycle;Signal;HPM_P1;HPM_P2
2023/05/28 00:02:04;;;;;;;5.50;3.27;;;18.30;91.90;;;;;;5022817;28;20987;-71
2023/05/28 00:04:30;;;;;;;5.73;4.00;;;18.30;92.00;;;;;;5004822;28;20237;-72
2023/05/28 00:06:55;;;;;;;4.90;3.80;;;18.30;92.00;;;;;;5031473;28;20233;-71
2023/05/28 00:09:21;;;;;;;7.27;3.70;;;18.30;91.70;;;;;;5017988;28;20221;-71
2023/05/28 00:11:48;;;;;;;4.30;3.90;;;18.30;92.40;;;;;;5028880;28;20216;-71
2023/05/28 00:14:14;;;;;;;5.50;4.07;;;18.30;91.80;;;;;;5032384;28;20463;-71
2023/05/28 00:16:40;;;;;;;5.17;3.27;;;18.30;91.90;;;;;;5038984;28;20443;-72
2023/05/28 00:19:07;;;;;;;5.83;3.80;;;18.30;91.90;;;;;;5023429;28;20662;-70
2023/05/28 00:21:34;;;;;;;6.20;3.63;;;18.20;91.80;;;;;;5029535;28;20519;-72
2023/05/28 00:24:00;;;;;;;6.03;3.57;;;18.20;91.80;;;;;;5037127;28;20868;-72
2023/05/28 00:26:26;;;;;;;7.73;3.00;;;18.10;91.80;;;;;;5010846;28;20463;-72
2023/05/28 00:28:52;;;;;;;6.80;3.57;;;18.10;91.80;;;;;;5015799;28;20507;-71
2023/05/28 00:31:18;;;;;;;4.23;3.37;;;18.00;91.80;;;;;;5014077;28;20482;-71
2023/05/28 00:33:44;;;;;;;5.07;3.77;;;17.90;92.10;;;;;;5029207;28;20472;-72
2023/05/28 00:36:12;;;;;;;7.70;3.50;;;17.90;92.30;;;;;;5015528;28;20256;-71
2023/05/28 00:38:38;;;;;;;4.17;3.03;;;17.90;92.30;;;;;;5020786;28;20247;-71
2023/05/28 00:41:03;;;;;;;5.40;3.40;;;17.80;92.40;;;;;;5026448;28;20509;-71
2023/05/28 00:43:29;;;;;;;5.27;3.30;;;17.80;92.50;;;;;;5014043;28;20251;-71
2023/05/28 00:46:04;;;;;;;4.70;3.50;;;17.80;92.60;;;;;;5031471;28;20228;-72
2023/05/28 00:48:30;;;;;;;5.27;3.90;;;17.80;92.60;;;;;;5038460;28;20690;-71
2023/05/28 00:50:59;;;;;;;3.37;2.80;;;17.80;92.30;;;;;;5022172;28;20444;-70
2023/05/28 00:53:25;;;;;;;4.87;3.60;;;17.80;92.40;;;;;;5030473;28;20455;-71
2023/05/28 00:55:51;;;;;;;5.90;3.43;;;17.80;92.40;;;;;;5033813;28;20451;-71
2023/05/28 00:58:19;;;;;;;5.80;3.67;;;17.80;92.20;;;;;;5030458;28;20242;-72
2023/05/28 01:00:45;;;;;;;9.77;4.07;;;17.70;92.10;;;;;;5008114;28;20524;-72
2023/05/28 01:03:12;;;;;;;5.33;3.47;;;17.60;92.50;;;;;;5034105;28;20448;-71
2023/05/28 01:05:37;;;;;;;5.23;3.70;;;17.60;92.20;;;;;;5010257;28;20489;-74
2023/05/28 01:08:05;;;;;;;3.60;3.17;;;17.50;92.50;;;;;;5010057;28;20480;-71
2023/05/28 01:10:32;;;;;;;4.67;3.50;;;17.50;92.50;;;;;;5013623;28;20215;-72
2023/05/28 01:13:00;;;;;;;5.90;3.57;;;17.40;92.70;;;;;;5021177;28;20499;-72
2023/05/28 01:15:26;;;;;;;7.13;3.90;;;17.40;92.80;;;;;;5018288;28;20490;-72
2023/05/28 01:17:57;;;;;;;6.70;3.40;;;17.40;92.10;;;;;;5028565;28;20502;-71
2023/05/28 01:20:25;;;;;;;4.33;3.67;;;17.40;92.40;;;;;;5034354;28;20454;-70
2023/05/28 01:22:59;;;;;;;3.60;3.17;;;17.40;92.50;;;;;;5019163;28;20444;-72
2023/05/28 01:25:27;;;;;;;8.67;3.47;;;17.40;92.40;;;;;;5010254;28;21243;-71
2023/05/28 01:27:53;;;;;;;5.80;4.07;;;17.30;92.50;;;;;;5009969;28;20464;-71
2023/05/28 01:30:20;;;;;;;6.30;3.77;;;17.30;92.60;;;;;;5008458;28;20467;-72
2023/05/28 01:32:47;;;;;;;7.77;3.37;;;17.30;92.60;;;;;;5018589;28;20473;-71
2023/05/28 01:35:13;;;;;;;4.70;4.20;;;17.30;92.50;;;;;;5010344;28;20977;-71
2023/05/28 01:37:46;;;;;;;5.07;3.20;;;17.20;92.50;;;;;;5044402;28;20224;-70
2023/05/28 01:40:14;;;;;;;5.93;3.20;;;17.20;92.60;;;;;;5027306;28;20451;-71
2023/05/28 01:42:40;;;;;;;6.03;3.40;;;17.20;92.50;;;;;;5024745;28;20478;-71
2023/05/28 01:45:10;;;;;;;8.00;3.87;;;17.20;92.60;;;;;;5046467;28;20494;-70
2023/05/28 01:47:38;;;;;;;7.60;3.60;;;17.10;92.50;;;;;;5022827;28;20217;-71
2023/05/28 01:50:04;;;;;;;6.53;4.10;;;17.10;92.60;;;;;;5024375;28;20466;-72
2023/05/28 01:52:30;;;;;;;5.63;3.73;;;17.10;92.50;;;;;;5028329;28;20898;-71
2023/05/28 01:54:56;;;;;;;7.10;3.37;;;17.20;92.50;;;;;;5027016;28;20455;-71
2023/05/28 01:57:22;;;;;;;3.90;3.50;;;17.20;92.40;;;;;;5046034;28;20220;-71
2023/05/28 01:59:48;;;;;;;4.00;3.60;;;17.10;92.30;;;;;;5044850;28;20208;-71
2023/05/28 02:02:14;;;;;;;5.83;3.20;;;17.10;92.40;;;;;;5031933;28;20470;-72
2023/05/28 02:04:39;;;;;;;7.47;3.60;;;17.00;92.40;;;;;;5046816;28;20221;-71
2023/05/28 02:07:06;;;;;;;5.70;3.97;;;17.00;92.50;;;;;;5030369;28;20240;-71
2023/05/28 02:09:32;;;;;;;6.67;3.60;;;17.00;92.50;;;;;;5044651;28;20209;-70
2023/05/28 02:12:02;;;;;;;3.87;3.47;;;16.90;92.70;;;;;;5041145;28;20885;-72
2023/05/28 02:14:28;;;;;;;4.70;3.33;;;16.90;92.50;;;;;;5043857;28;20213;-71
2023/05/28 02:16:54;;;;;;;7.30;3.40;;;17.00;92.70;;;;;;5020699;28;20448;-71
2023/05/28 02:19:20;;;;;;;3.20;2.90;;;16.90;92.60;;;;;;5045912;28;20451;-71
2023/05/28 02:21:46;;;;;;;3.60;3.27;;;16.90;92.60;;;;;;5046709;28;20296;-71
2023/05/28 02:24:12;;;;;;;6.27;3.53;;;16.80;92.60;;;;;;5045038;28;20476;-72
2023/05/28 02:26:38;;;;;;;3.80;3.50;;;16.90;92.70;;;;;;5043780;28;21062;-71
2023/05/28 02:29:05;;;;;;;7.80;3.43;;;16.80;92.50;;;;;;5030317;28;20534;-70
2023/05/28 02:31:31;;;;;;;7.47;3.90;;;16.80;92.50;;;;;;5044435;28;20216;-72
2023/05/28 02:33:57;;;;;;;4.03;3.03;;;16.80;92.50;;;;;;5045379;28;20447;-71
2023/05/28 02:36:23;;;;;;;8.10;3.63;;;16.70;92.50;;;;;;5043407;28;20443;-71
2023/05/28 02:38:50;;;;;;;4.83;3.27;;;16.70;92.60;;;;;;5039236;28;20272;-71
2023/05/28 02:41:16;;;;;;;4.13;3.60;;;16.70;92.50;;;;;;5040066;28;20467;-71
2023/05/28 02:43:47;;;;;;;8.53;3.97;;;16.70;92.70;;;;;;5027020;28;20452;-71
2023/05/28 02:46:12;;;;;;;3.90;3.27;;;16.60;92.60;;;;;;5047941;28;20448;-71
2023/05/28 02:48:39;;;;;;;4.00;3.50;;;16.60;92.60;;;;;;5027751;28;20820;-71
2023/05/28 02:51:05;;;;;;;3.67;2.80;;;16.60;92.70;;;;;;5036380;28;20308;-71
2023/05/28 02:53:33;;;;;;;5.07;3.93;;;16.60;92.60;;;;;;5053808;28;20470;-71
2023/05/28 02:55:59;;;;;;;4.10;3.30;;;16.50;92.70;;;;;;5030851;28;20964;-71
2023/05/28 02:58:25;;;;;;;4.47;3.57;;;16.50;92.70;;;;;;5040968;28;20310;-72
2023/05/28 03:00:51;;;;;;;4.80;3.10;;;16.50;92.70;;;;;;5027364;28;20498;-71
2023/05/28 03:03:17;;;;;;;6.67;3.20;;;16.50;92.70;;;;;;5030417;28;20224;-72
2023/05/28 03:05:43;;;;;;;3.13;2.83;;;16.40;92.80;;;;;;5044449;28;20220;-71
2023/05/28 03:08:09;;;;;;;3.70;2.90;;;16.20;92.90;;;;;;5042281;28;20542;-71
2023/05/28 03:10:37;;;;;;;4.07;3.67;;;16.20;93.10;;;;;;5025441;28;20455;-72
2023/05/28 03:13:03;;;;;;;5.13;3.20;;;16.20;92.90;;;;;;5024654;28;20459;-71
2023/05/28 03:15:30;;;;;;;7.00;3.37;;;16.30;93.00;;;;;;5029584;28;20217;-71
2023/05/28 03:17:56;;;;;;;4.60;3.50;;;16.30;93.00;;;;;;5040659;28;20459;-71
2023/05/28 03:20:24;;;;;;;5.87;4.10;;;16.30;92.90;;;;;;5042458;28;20554;-69
2023/05/28 03:22:56;;;;;;;6.23;3.70;;;16.30;92.90;;;;;;5019898;28;20527;-71
2023/05/28 03:25:23;;;;;;;6.73;3.30;;;16.30;92.90;;;;;;5026448;28;20209;-70
2023/05/28 03:27:48;;;;;;;6.87;3.50;;;16.20;92.80;;;;;;5050019;28;20448;-71
2023/05/28 03:30:15;;;;;;;4.33;3.30;;;16.20;92.80;;;;;;5041033;28;20463;-71
2023/05/28 03:32:44;;;;;;;4.87;3.60;;;16.20;92.90;;;;;;5027045;28;20220;-71
2023/05/28 03:35:10;;;;;;;8.60;3.97;;;16.10;93.10;;;;;;5033281;28;20450;-71
2023/05/28 03:37:36;;;;;;;4.97;3.37;;;16.00;93.10;;;;;;5041784;28;20730;-71
2023/05/28 03:40:04;;;;;;;4.13;3.27;;;16.00;93.10;;;;;;5034811;28;20232;-71
2023/05/28 03:42:30;;;;;;;7.60;3.57;;;16.00;93.20;;;;;;5048260;28;20686;-72
2023/05/28 03:44:56;;;;;;;6.47;3.93;;;16.00;93.10;;;;;;5034544;28;20835;-70
2023/05/28 03:47:22;;;;;;;4.33;3.27;;;15.90;93.00;;;;;;5030532;28;20439;-71
2023/05/28 03:49:48;;;;;;;7.73;4.30;;;16.00;93.10;;;;;;5043018;28;20209;-71
2023/05/28 03:52:14;;;;;;;8.80;4.10;;;16.00;93.10;;;;;;5031801;28;20467;-70
2023/05/28 03:54:48;;;;;;;5.80;3.27;;;16.00;93.10;;;;;;5030888;28;20495;-71
2023/05/28 03:57:14;;;;;;;6.47;4.50;;;16.00;93.10;;;;;;5044197;28;20505;-71
2023/05/28 03:59:40;;;;;;;8.80;3.37;;;16.00;93.10;;;;;;5031095;28;20706;-71
2023/05/28 04:02:06;;;;;;;3.90;3.40;;;15.90;93.10;;;;;;5024100;28;20220;-71
2023/05/28 04:04:31;;;;;;;5.30;3.40;;;15.90;93.00;;;;;;5040307;28;20455;-71
2023/05/28 04:06:57;;;;;;;5.43;3.33;;;15.90;93.10;;;;;;5027907;28;20308;-70
2023/05/28 04:09:23;;;;;;;3.87;3.10;;;15.80;93.10;;;;;;5018834;28;20354;-71
2023/05/28 04:11:49;;;;;;;4.30;3.23;;;15.90;93.10;;;;;;5012791;28;20213;-71
2023/05/28 04:14:15;;;;;;;4.90;3.40;;;15.90;93.20;;;;;;5026383;28;20241;-71
2023/05/28 04:16:41;;;;;;;5.60;3.73;;;15.90;93.30;;;;;;5012903;28;20977;-71
2023/05/28 04:19:07;;;;;;;7.67;3.80;;;15.90;93.30;;;;;;5028887;28;20225;-71
2023/05/28 04:21:33;;;;;;;6.43;4.10;;;15.90;93.30;;;;;;5021833;28;20218;-71
2023/05/28 04:24:00;;;;;;;4.90;3.30;;;15.90;93.40;;;;;;5031408;28;20463;-71
2023/05/28 04:26:26;;;;;;;3.17;2.87;;;15.90;93.50;;;;;;5015635;28;20371;-71
2023/05/28 04:28:52;;;;;;;5.20;3.17;;;15.80;93.50;;;;;;5005139;28;20527;-70
2023/05/28 04:31:18;;;;;;;5.00;3.17;;;15.80;93.40;;;;;;5042308;28;20217;-71
2023/05/28 04:33:47;;;;;;;3.50;3.00;;;15.80;93.40;;;;;;5029068;28;20442;-71
2023/05/28 04:36:13;;;;;;;4.50;2.83;;;15.80;93.50;;;;;;5019256;28;20452;-71
2023/05/28 04:38:39;;;;;;;5.20;3.60;;;15.80;93.60;;;;;;5032991;28;20475;-70
2023/05/28 04:41:06;;;;;;;4.17;2.73;;;15.80;93.40;;;;;;5032403;28;20449;-71
2023/05/28 04:43:33;;;;;;;4.60;2.90;;;15.80;93.60;;;;;;5037097;28;20463;-71
2023/05/28 04:46:01;;;;;;;7.03;3.60;;;15.80;93.60;;;;;;5016675;28;20453;-71
2023/05/28 04:48:27;;;;;;;3.73;3.37;;;15.80;93.60;;;;;;5021718;28;21052;-71
2023/05/28 04:50:53;;;;;;;5.20;3.97;;;15.80;94.00;;;;;;5028065;28;20528;-69
2023/05/28 04:53:20;;;;;;;3.23;3.00;;;15.70;93.50;;;;;;5020863;28;20205;-71
2023/05/28 04:55:46;;;;;;;3.60;3.17;;;15.80;93.70;;;;;;5034953;28;20466;-71
2023/05/28 04:58:11;;;;;;;5.97;3.87;;;15.80;93.60;;;;;;5014485;28;20444;-71
2023/05/28 05:00:37;;;;;;;5.53;3.53;;;15.90;93.60;;;;;;5019717;28;20214;-70
2023/05/28 05:03:03;;;;;;;6.30;3.67;;;15.90;93.40;;;;;;5017122;28;20237;-71
2023/05/28 05:05:30;;;;;;;7.93;3.57;;;15.90;93.60;;;;;;5038642;28;20242;-72
2023/05/28 05:07:56;;;;;;;4.33;3.30;;;15.90;93.70;;;;;;5028731;28;20454;-72
2023/05/28 05:10:22;;;;;;;4.07;3.27;;;15.90;93.60;;;;;;5017489;28;20467;-70
2023/05/28 05:12:49;;;;;;;5.57;3.17;;;15.90;93.70;;;;;;5003257;28;20472;-72
2023/05/28 05:15:15;;;;;;;6.27;3.57;;;16.00;93.80;;;;;;5016986;28;20513;-73
2023/05/28 05:17:42;;;;;;;5.43;3.60;;;16.00;93.90;;;;;;5016893;28;20278;-71
2023/05/28 05:20:08;;;;;;;4.33;3.43;;;16.00;93.90;;;;;;5025385;28;20986;-70
2023/05/28 05:22:35;;;;;;;5.17;3.57;;;16.00;93.80;;;;;;5033089;28;20237;-71
2023/05/28 05:25:01;;;;;;;5.90;3.50;;;16.10;94.00;;;;;;5031919;28;20539;-71
2023/05/28 05:27:28;;;;;;;5.60;3.90;;;16.10;94.00;;;;;;5034068;28;20631;-70
2023/05/28 05:29:54;;;;;;;5.10;2.90;;;16.10;94.00;;;;;;5031909;28;20240;-70
2023/05/28 05:32:20;;;;;;;5.70;3.20;;;16.10;94.10;;;;;;5009227;28;20476;-70
2023/05/28 05:34:46;;;;;;;6.20;3.30;;;16.10;94.10;;;;;;5007970;28;20456;-70
2023/05/28 05:37:37;;;;;;;5.10;3.17;;;16.20;94.20;;;;;;5023166;28;20228;-71
2023/05/28 05:40:05;;;;;;;8.47;5.23;;;16.20;94.60;;;;;;5025517;28;20456;-71
2023/05/28 05:43:00;;;;;;;6.20;3.23;;;16.20;94.50;;;;;;4997919;28;20261;-71
2023/05/28 05:45:25;;;;;;;4.97;3.40;;;16.30;94.40;;;;;;5025179;28;20472;-71
2023/05/28 05:47:52;;;;;;;4.20;2.97;;;16.30;94.70;;;;;;5009240;28;20631;-70
2023/05/28 05:50:18;;;;;;;3.63;3.00;;;16.40;94.60;;;;;;5001700;28;20457;-69
2023/05/28 05:52:44;;;;;;;5.10;3.90;;;16.40;95.00;;;;;;5008901;28;20527;-71
2023/05/28 05:55:11;;;;;;;6.37;3.67;;;16.40;95.10;;;;;;5022701;28;20228;-70
2023/05/28 05:57:36;;;;;;;3.13;2.60;;;16.50;95.10;;;;;;5027595;28;20460;-71
2023/05/28 06:00:08;;;;;;;3.60;2.97;;;16.50;95.00;;;;;;5014401;28;20342;-71
2023/05/28 06:02:40;;;;;;;3.40;3.03;;;16.60;95.40;;;;;;5031288;28;20216;-72
2023/05/28 06:05:26;;;;;;;6.87;4.30;;;16.60;95.20;;;;;;5021366;28;20436;-70
2023/05/28 06:08:24;;;;;;;3.67;2.93;;;16.70;95.50;;;;;;4976406;28;20473;-70
2023/05/28 06:11:02;;;;;;;5.10;3.80;;;16.80;96.10;;;;;;5026355;28;20456;-71
2023/05/28 06:13:28;;;;;;;5.03;3.13;;;16.80;95.90;;;;;;5022653;28;20482;-73
2023/05/28 06:15:54;;;;;;;5.00;3.57;;;16.90;95.90;;;;;;5036339;28;20546;-72
2023/05/28 06:18:21;;;;;;;10.50;3.47;;;17.00;95.60;;;;;;5035919;28;21025;-70
2023/05/28 06:20:49;;;;;;;3.50;3.20;;;16.90;95.90;;;;;;5009605;28;20209;-71
2023/05/28 06:23:15;;;;;;;7.53;3.80;;;17.00;95.80;;;;;;5030144;28;20447;-71
2023/05/28 06:25:41;;;;;;;3.63;3.23;;;17.10;96.20;;;;;;5022009;28;20513;-71
2023/05/28 06:28:08;;;;;;;6.63;3.77;;;17.20;96.30;;;;;;5013456;28;20462;-71
2023/05/28 06:30:34;;;;;;;7.47;2.97;;;17.30;96.10;;;;;;5032687;28;20455;-72
2023/05/28 06:33:00;;;;;;;4.93;3.10;;;17.40;96.10;;;;;;5026857;28;20220;-71
2023/05/28 06:35:26;;;;;;;5.87;3.77;;;17.40;96.10;;;;;;5021190;28;20219;-71
2023/05/28 06:37:51;;;;;;;4.40;3.40;;;17.50;96.00;;;;;;5024779;28;20450;-71
2023/05/28 06:40:17;;;;;;;5.77;3.23;;;17.40;95.90;;;;;;5025102;28;20216;-71
2023/05/28 06:42:43;;;;;;;5.43;3.37;;;17.40;96.60;;;;;;5035436;28;20219;-72
2023/05/28 06:45:15;;;;;;;8.20;3.70;;;17.60;96.40;;;;;;5012307;28;20226;-71
2023/05/28 06:47:41;;;;;;;7.07;4.10;;;17.70;96.50;;;;;;5021231;28;20471;-71
2023/05/28 06:50:08;;;;;;;3.60;3.10;;;17.70;96.40;;;;;;5037838;28;20551;-70
2023/05/28 06:52:33;;;;;;;3.20;2.90;;;17.70;95.90;;;;;;5016889;28;20460;-71
2023/05/28 06:55:00;;;;;;;4.77;3.13;;;17.90;96.50;;;;;;5024249;28;20452;-70
2023/05/28 06:57:28;;;;;;;3.97;3.43;;;18.00;96.00;;;;;;5010797;28;20472;-71
2023/05/28 07:00:10;;;;;;;6.43;3.83;;;18.10;96.30;;;;;;5029527;28;20965;-71
2023/05/28 07:02:49;;;;;;;3.50;3.20;;;18.20;96.60;;;;;;5019795;28;20542;-70
2023/05/28 07:05:40;;;;;;;5.23;3.97;;;18.40;96.20;;;;;;5019984;28;20825;-71
2023/05/28 07:08:09;;;;;;;4.90;3.77;;;18.50;96.20;;;;;;5022435;28;20460;-71
2023/05/28 07:10:35;;;;;;;5.80;3.87;;;18.60;96.20;;;;;;5019637;28;20469;-71
2023/05/28 07:13:01;;;;;;;4.60;3.83;;;18.60;96.10;;;;;;5032584;28;20468;-71
2023/05/28 07:15:27;;;;;;;5.23;3.47;;;18.60;96.40;;;;;;5010707;28;20272;-71
2023/05/28 07:17:52;;;;;;;4.70;3.33;;;18.80;96.50;;;;;;5017143;28;20221;-71
2023/05/28 07:20:18;;;;;;;5.83;3.40;;;19.00;96.20;;;;;;5031262;28;20217;-70
2023/05/28 07:22:50;;;;;;;3.60;3.20;;;19.10;95.70;;;;;;5041155;28;20224;-71
2023/05/28 07:25:16;;;;;;;5.23;3.37;;;19.10;96.20;;;;;;5032402;28;20602;-72
2023/05/28 07:27:42;;;;;;;4.87;3.50;;;19.10;96.10;;;;;;5033776;28;20934;-71
2023/05/28 07:30:09;;;;;;;5.50;4.00;;;19.10;96.40;;;;;;5009446;28;20232;-72
2023/05/28 07:32:34;;;;;;;7.50;3.40;;;19.20;96.20;;;;;;5019117;28;20217;-71
2023/05/28 07:35:01;;;;;;;6.07;4.30;;;19.30;96.50;;;;;;5009810;28;20445;-71
2023/05/28 07:37:28;;;;;;;4.90;3.20;;;19.50;95.60;;;;;;5035661;28;20476;-69
2023/05/28 07:39:54;;;;;;;4.20;3.10;;;19.80;95.60;;;;;;5032639;28;21011;-70
2023/05/28 07:42:20;;;;;;;5.03;3.30;;;19.70;95.40;;;;;;5024388;28;20452;-72
2023/05/28 07:44:55;;;;;;;3.33;3.03;;;19.70;95.20;;;;;;5010209;28;20238;-70
2023/05/28 07:47:20;;;;;;;5.50;3.50;;;19.80;95.20;;;;;;5013477;28;20476;-70
2023/05/28 07:50:05;;;;;;;6.20;3.50;;;19.80;94.90;;;;;;5020206;28;20231;-71
2023/05/28 07:52:51;;;;;;;8.80;3.77;;;19.90;94.70;;;;;;5012295;28;21045;-72
2023/05/28 07:55:18;;;;;;;4.73;3.40;;;20.10;94.70;;;;;;5017066;28;20542;-71
2023/05/28 07:57:44;;;;;;;6.20;3.17;;;20.20;94.20;;;;;;5008889;28;20599;-71
2023/05/28 08:00:12;;;;;;;5.60;3.13;;;20.30;94.20;;;;;;5017669;28;20274;-70
2023/05/28 08:02:52;;;;;;;3.87;3.40;;;20.40;94.60;;;;;;5029320;28;20213;-72
2023/05/28 08:05:19;;;;;;;13.50;4.47;;;20.60;94.20;;;;;;5002298;28;20455;-71
2023/05/28 08:07:46;;;;;;;5.23;3.77;;;20.50;93.90;;;;;;5002431;28;20570;-70
2023/05/28 08:10:12;;;;;;;4.93;3.50;;;20.70;93.80;;;;;;5015954;28;20461;-70
2023/05/28 08:12:38;;;;;;;7.00;3.83;;;20.70;93.70;;;;;;5010561;28;20486;-70
2023/05/28 08:15:04;;;;;;;7.83;3.87;;;20.80;94.10;;;;;;5009795;28;20220;-71
2023/05/28 08:17:31;;;;;;;3.83;3.30;;;21.00;94.00;;;;;;5031957;28;20802;-71
2023/05/28 08:20:04;;;;;;;5.27;3.47;;;21.20;94.10;;;;;;5040739;28;20465;-71
2023/05/28 08:22:49;;;;;;;4.10;3.30;;;21.40;94.00;;;;;;5037334;28;20538;-72
2023/05/28 08:25:16;;;;;;;9.00;3.70;;;21.30;94.00;;;;;;5027462;28;20470;-71
2023/05/28 08:27:43;;;;;;;5.70;3.43;;;21.20;94.10;;;;;;5025656;28;20478;-70
2023/05/28 08:30:09;;;;;;;7.57;3.50;;;21.40;94.10;;;;;;5008054;28;20838;-73
2023/05/28 08:32:42;;;;;;;4.20;3.27;;;21.50;94.10;;;;;;5016810;28;20644;-72
2023/05/28 08:35:08;;;;;;;4.90;3.13;;;21.60;93.70;;;;;;5015766;28;20460;-71
2023/05/28 08:37:34;;;;;;;7.50;3.60;;;21.70;93.70;;;;;;5016198;28;20465;-71
2023/05/28 08:40:10;;;;;;;4.50;3.73;;;21.60;93.40;;;;;;5017229;28;20530;-68
2023/05/28 08:42:36;;;;;;;4.67;3.73;;;21.70;93.30;;;;;;5029126;28;20492;-69
2023/05/28 08:45:03;;;;;;;4.23;3.80;;;21.90;92.80;;;;;;5022555;28;20985;-71
2023/05/28 08:47:33;;;;;;;3.40;3.03;;;22.10;92.50;;;;;;5007415;28;20301;-74
2023/05/28 08:50:06;;;;;;;5.13;3.27;;;22.10;92.20;;;;;;5028242;28;20453;-72
2023/05/28 08:52:38;;;;;;;4.70;3.20;;;22.10;92.40;;;;;;5004412;28;20562;-72
2023/05/28 08:55:05;;;;;;;5.23;3.47;;;22.10;92.40;;;;;;5020767;28;20451;-70
2023/05/28 08:57:35;;;;;;;4.50;3.43;;;22.20;92.10;;;;;;4999554;28;20876;-72
2023/05/28 09:00:08;;;;;;;4.40;3.67;;;22.50;91.90;;;;;;5021138;28;20535;-70
2023/05/28 09:02:50;;;;;;;5.93;4.00;;;22.60;92.00;;;;;;5008227;28;21004;-72
2023/05/28 09:05:15;;;;;;;4.00;3.20;;;22.80;92.20;;;;;;5000451;28;20535;-71
2023/05/28 09:07:41;;;;;;;7.43;3.50;;;22.70;92.10;;;;;;5010482;28;20908;-72
2023/05/28 09:10:11;;;;;;;3.87;3.53;;;22.80;92.10;;;;;;5007318;28;20209;-72
2023/05/28 09:12:41;;;;;;;4.67;4.27;;;22.90;91.80;;;;;;5004340;28;20721;-72
2023/05/28 09:15:08;;;;;;;5.10;3.60;;;23.10;91.80;;;;;;5013857;28;20454;-72
2023/05/28 09:17:36;;;;;;;7.23;4.30;;;23.00;91.80;;;;;;5005907;28;20456;-73
2023/05/28 09:20:12;;;;;;;8.63;3.80;;;23.10;91.90;;;;;;5019668;28;21001;-72
2023/05/28 09:22:40;;;;;;;7.37;4.37;;;23.20;91.70;;;;;;5026137;28;20804;-71
2023/05/28 09:25:19;;;;;;;5.53;3.57;;;23.20;91.80;;;;;;5025962;28;20947;-71
2023/05/28 09:27:58;;;;;;;5.03;3.87;;;23.20;91.80;;;;;;5018264;28;20492;-72
2023/05/28 09:30:24;;;;;;;6.33;3.83;;;23.30;92.00;;;;;;5013211;28;20466;-72
2023/05/28 09:33:03;;;;;;;6.50;4.47;;;23.30;92.50;;;;;;5002612;28;20514;-72
2023/05/28 09:35:30;;;;;;;3.87;3.20;;;23.50;92.00;;;;;;5015703;28;20454;-71
2023/05/28 09:38:14;;;;;;;6.50;3.70;;;23.50;91.50;;;;;;5028218;28;20477;-72
2023/05/28 09:40:41;;;;;;;6.80;3.77;;;23.60;91.40;;;;;;5022343;28;20467;-72
2023/05/28 09:43:08;;;;;;;7.43;4.30;;;23.70;90.60;;;;;;5006690;28;20455;-71
2023/05/28 09:45:34;;;;;;;4.00;3.60;;;23.60;90.30;;;;;;5019956;28;20809;-72
2023/05/28 09:48:00;;;;;;;3.20;2.90;;;23.60;90.20;;;;;;5021115;28;20538;-71
2023/05/28 09:50:26;;;;;;;6.57;4.50;;;23.80;89.70;;;;;;5035561;28;20482;-71
2023/05/28 09:52:56;;;;;;;6.80;3.80;;;24.10;89.40;;;;;;5033377;28;20459;-73
2023/05/28 09:55:25;;;;;;;4.07;3.67;;;24.10;89.00;;;;;;5015119;28;21011;-72
2023/05/28 09:58:05;;;;;;;5.80;4.17;;;24.30;89.10;;;;;;5032920;28;20594;-72
2023/05/28 10:00:37;;;;;;;5.57;4.20;;;24.10;89.40;;;;;;5021031;28;20969;-73
2023/05/28 10:03:16;;;;;;;4.37;3.67;;;24.30;90.00;;;;;;5024527;28;20457;-72
2023/05/28 10:05:51;;;;;;;6.17;4.80;;;24.40;89.70;;;;;;5011303;28;20582;-72
2023/05/28 10:08:21;;;;;;;6.23;3.90;;;24.50;90.00;;;;;;5038773;28;20474;-72
2023/05/28 10:10:52;;;;;;;4.43;3.63;;;24.70;89.00;;;;;;5011663;28;20477;-72
2023/05/28 10:13:17;;;;;;;4.40;4.00;;;25.00;88.50;;;;;;5028804;28;20475;-71
2023/05/28 10:15:45;;;;;;;5.47;3.97;;;25.10;88.10;;;;;;5012652;28;20458;-72
2023/05/28 10:18:14;;;;;;;6.27;4.27;;;25.10;88.50;;;;;;5003248;28;20229;-73
2023/05/28 10:20:40;;;;;;;4.63;3.70;;;25.20;88.50;;;;;;5024846;28;20582;-72
2023/05/28 10:23:07;;;;;;;4.70;3.53;;;25.40;87.50;;;;;;5021972;28;20450;-72
2023/05/28 10:25:33;;;;;;;5.53;3.77;;;25.40;85.90;;;;;;5020462;28;20454;-72
2023/05/28 10:28:03;;;;;;;5.37;4.17;;;25.60;85.90;;;;;;5013693;28;20454;-73
2023/05/28 10:30:32;;;;;;;7.63;4.70;;;25.40;85.70;;;;;;5029925;28;20470;-73
2023/05/28 10:32:58;;;;;;;6.40;4.27;;;25.20;85.10;;;;;;5026798;28;20461;-71
2023/05/28 10:35:24;;;;;;;4.93;4.40;;;25.40;84.10;;;;;;5026650;28;20456;-72
2023/05/28 10:37:49;;;;;;;5.57;4.20;;;25.60;83.80;;;;;;5022985;28;20213;-71
2023/05/28 10:40:23;;;;;;;4.50;3.50;;;25.60;82.30;;;;;;5025287;28;20213;-72
2023/05/28 10:42:49;;;;;;;4.57;3.63;;;25.80;80.80;;;;;;5018986;28;20291;-72
2023/05/28 10:45:15;;;;;;;5.17;3.50;;;25.80;79.70;;;;;;5036961;28;20517;-72
2023/05/28 10:47:50;;;;;;;5.63;4.10;;;25.80;79.60;;;;;;5021623;28;20554;-72
2023/05/28 10:50:17;;;;;;;6.40;3.73;;;25.90;78.70;;;;;;5023373;28;20216;-70
2023/05/28 10:53:02;;;;;;;4.93;3.77;;;25.80;78.70;;;;;;5028929;28;20490;-72
2023/05/28 10:55:28;;;;;;;5.83;3.37;;;25.80;78.80;;;;;;5022205;28;20466;-72
2023/05/28 10:58:11;;;;;;;5.23;3.77;;;26.00;78.10;;;;;;5020412;28;20462;-72
2023/05/28 11:00:40;;;;;;;5.23;4.03;;;26.20;78.30;;;;;;5017988;28;20223;-72
2023/05/28 11:03:06;;;;;;;4.50;3.47;;;26.10;77.10;;;;;;5034637;28;20454;-72
2023/05/28 11:05:35;;;;;;;12.13;4.27;;;26.00;75.20;;;;;;5007814;28;20472;-74
2023/05/28 11:08:02;;;;;;;6.00;4.23;;;26.20;75.70;;;;;;5016827;28;20238;-71
2023/05/28 11:10:28;;;;;;;4.37;3.57;;;26.10;72.50;;;;;;5023496;28;20458;-71
2023/05/28 11:12:54;;;;;;;4.23;3.37;;;26.20;72.10;;;;;;5022719;28;20451;-72
2023/05/28 11:15:22;;;;;;;5.67;3.60;;;26.20;70.60;;;;;;5014614;28;20617;-72
2023/05/28 11:17:49;;;;;;;5.17;3.90;;;26.20;70.90;;;;;;5008710;28;20256;-72
2023/05/28 11:20:26;;;;;;;4.60;3.60;;;26.10;68.90;;;;;;5016961;28;20221;-72
2023/05/28 11:22:53;;;;;;;6.40;4.13;;;25.90;69.90;;;;;;5023203;28;20446;-72
2023/05/28 11:25:21;;;;;;;4.40;3.50;;;25.90;70.40;;;;;;5040257;28;20546;-72
2023/05/28 11:27:50;;;;;;;8.33;4.93;;;26.30;69.90;;;;;;5029841;28;20897;-72
2023/05/28 11:30:17;;;;;;;8.50;5.30;;;26.40;70.20;;;;;;5028175;28;20462;-72
2023/05/28 11:32:44;;;;;;;5.10;3.90;;;25.90;70.80;;;;;;5008065;28;20495;-72
2023/05/28 11:35:12;;;;;;;5.30;3.97;;;25.70;71.60;;;;;;5019291;28;20446;-72
2023/05/28 11:37:39;;;;;;;4.20;3.80;;;26.00;71.70;;;;;;5028024;28;20912;-72
2023/05/28 11:40:09;;;;;;;5.00;4.03;;;26.50;71.50;;;;;;5026391;28;20482;-72
2023/05/28 11:42:37;;;;;;;4.53;4.10;;;26.50;70.20;;;;;;5021425;28;21075;-72
2023/05/28 11:45:03;;;;;;;6.37;3.53;;;26.50;69.10;;;;;;5020440;28;20539;-71
2023/05/28 11:47:32;;;;;;;5.00;3.90;;;26.20;70.10;;;;;;5015513;28;20487;-72
2023/05/28 11:50:05;;;;;;;4.53;4.10;;;26.20;69.50;;;;;;5022510;28;20950;-72
2023/05/28 11:52:30;;;;;;;5.83;4.17;;;26.50;70.00;;;;;;5018415;28;20972;-72
2023/05/28 11:54:58;;;;;;;4.60;3.97;;;26.20;68.50;;;;;;5017589;28;20501;-73
2023/05/28 11:57:25;;;;;;;4.00;3.37;;;25.80;68.70;;;;;;5015525;28;20219;-72
2023/05/28 12:00:11;;;;;;;6.13;4.27;;;25.90;68.00;;;;;;5030077;28;20224;-72
2023/05/28 12:02:48;;;;;;;6.50;4.30;;;25.80;69.20;;;;;;5030181;28;20450;-72
2023/05/28 12:05:15;;;;;;;5.63;3.87;;;26.00;71.40;;;;;;5031494;28;20451;-72
2023/05/28 12:07:46;;;;;;;6.20;3.93;;;26.50;68.80;;;;;;5021912;28;20483;-72
2023/05/28 12:10:14;;;;;;;4.57;3.70;;;26.70;68.80;;;;;;5022729;28;20221;-72
2023/05/28 12:12:43;;;;;;;5.50;4.23;;;26.60;67.90;;;;;;5015650;28;20494;-71
2023/05/28 12:15:09;;;;;;;4.90;4.40;;;26.70;67.80;;;;;;5029870;28;20455;-72
2023/05/28 12:17:37;;;;;;;4.70;3.80;;;26.70;67.30;;;;;;5028147;28;20992;-71
2023/05/28 12:20:23;;;;;;;5.23;3.80;;;26.50;66.60;;;;;;5025774;28;20444;-72
2023/05/28 12:23:06;;;;;;;4.27;3.90;;;26.20;68.90;;;;;;5019012;28;20451;-72
2023/05/28 12:25:44;;;;;;;4.80;3.93;;;26.40;66.40;;;;;;5020664;28;20451;-73
2023/05/28 12:28:14;;;;;;;6.37;4.20;;;26.50;66.20;;;;;;5037099;28;20494;-71
2023/05/28 12:30:41;;;;;;;7.10;4.33;;;26.50;65.50;;;;;;5033941;28;20513;-73
2023/05/28 12:33:08;;;;;;;5.60;4.37;;;26.40;63.70;;;;;;5028526;28;20924;-71
2023/05/28 12:35:33;;;;;;;6.67;4.30;;;26.40;64.30;;;;;;5011449;28;20443;-72
2023/05/28 12:38:00;;;;;;;5.47;4.20;;;26.60;64.30;;;;;;5023297;28;20447;-72
2023/05/28 12:40:25;;;;;;;5.37;4.07;;;26.60;63.90;;;;;;5022889;28;20209;-72
2023/05/28 12:42:51;;;;;;;5.83;3.70;;;26.80;63.30;;;;;;5025452;28;20501;-72
2023/05/28 12:45:17;;;;;;;6.20;4.30;;;26.80;63.20;;;;;;5020292;28;20223;-72
2023/05/28 12:47:42;;;;;;;6.80;4.80;;;26.60;63.70;;;;;;5020915;28;20703;-72
2023/05/28 12:50:08;;;;;;;5.50;4.17;;;26.60;62.10;;;;;;5011480;28;20239;-72
2023/05/28 12:52:34;;;;;;;6.22;4.30;;;26.80;61.50;;;;;;5026953;28;20633;-72